Ambler, Alaska
Current Conditions -  °F | °C
As of 9:56 PM on Sunday 21 Dec 2014 (Local Time) from PAFM Reporting Station
Overcast Overcast  
Wind Chill:   Ceiling: 4200
Heat Index:   Visibility: 8mi
Dew Point:   Wind: 0mph
Humidity: 79%   Direction: NA
Pressure: 29.62"   Gusts: NA
Location:  67.09°N, 157.85°W
Report Text: PAFM 220656Z AUTO 00000KT 8SM FEW032 BKN042 OVC049 M14/M17 A2962 RMK AO1
Loading
Personal Weather Stations






























Interactive Weather Map New forecast layout! Learn more

10-Day Weather Forecast

Advertisements
Track Severe Weather on mobile